Accueil
METAR-TAF:

METAR-TAF

Aéroports :

Rīga, Lettonie

Aéroport international de Riga

latitude: 56-55N, longitude: 023-58E, altitude: 10 m

Observation

Le bulletin a été fait il y a 15 minutes, à 12:50 UTC
Vent 8 kt de ouest/sud-ouest, variant entre sud/sud-ouest et ouest/nord-ouest
Température 7°C
Humidité 61%
Pression 1018 hPa
Visibilité 10 km ou plus
pas de nuages en-dessous de 1500 mètres et pas de cumulonimbus.

METAR: EVRA 261250Z 25008KT 200V290 CAVOK 07/00 Q1018 R18/190095 NOSIG

Heure: 16:05 (13:05 UTC)

Prévision

Le bulletin a été fait il y a 2 heures et 5 minutes, à 11:00 UTC
Prévision valable du 26 à 12 UTC au 27 à 12 UTC
Vent 7 kt de ouest/nord-ouest
Visibilité 10 km ou plus
Nuages fragmentés à une hauteur de 4000 ft
Temporairement
du 26 à 15 UTC au 26 à 23 UTC
Vent 15 kt de ouest/nord-ouest avec des rafales jusqu'à 28 kt

TAF: EVRA 261100Z 2612/2712 29007KT 9999 BKN040 TEMPO 2615/2623 29015G28KT

Observations et prévisions météorologiques de plus de 4000 aéroports (messages METAR et TAF).

Les stations disponibles sont représentées par des disques jaunes et rouges sur la carte.

Passer la souris dessus pour voir le nom de la station.

Cliquer dessus pour voir les observations et prévisions météorologiques.

Pour changer de carte: cliquez sur les boutons verts avec une croix noire pour zoomer, sur le bouton vert avec un tiret pour effectuer un zoom arrière, ou sur les flèches vertes pour les cartes adjacentes.


METAR-TAF: